Time;durP1;ratioP1;P1;durP2;ratioP2;P2;SDS_P1;SDS_P2;PMS_P1;PMS_P2;Temp;Humidity;BMP_temperature;BMP_pressure;BME280_temperature;BME280_humidity;BME280_pressure;Samples;Min_cycle;Max_cycle;Signal;HPM_P1;HPM_P2
2023/05/17 00:02:13;;;;;;;5.43;1.73;;;;;;;13.80;50.75;101137.59;4882184;29;20302;-75
2023/05/17 00:04:43;;;;;;;8.27;2.00;;;;;;;13.76;50.87;101148.69;4882549;29;20215;-76
2023/05/17 00:07:11;;;;;;;5.37;1.80;;;;;;;13.75;50.91;101144.34;4886902;29;20230;-75
2023/05/17 00:09:39;;;;;;;4.83;1.43;;;;;;;13.81;50.97;101151.72;4882403;29;20317;-74
2023/05/17 00:12:07;;;;;;;5.33;1.40;;;;;;;13.74;51.04;101148.84;4883073;29;20221;-76
2023/05/17 00:14:35;;;;;;;6.23;1.90;;;;;;;13.73;51.18;101149.81;4884729;29;20693;-76
2023/05/17 00:17:02;;;;;;;4.50;1.83;;;;;;;13.67;51.26;101149.59;4885122;29;20239;-77
2023/05/17 00:19:30;;;;;;;5.40;1.50;;;;;;;13.78;51.23;101149.38;4879702;29;20246;-78
2023/05/17 00:21:59;;;;;;;6.53;2.03;;;;;;;13.74;51.13;101148.00;4883539;29;20210;-75
2023/05/17 00:24:27;;;;;;;6.27;1.80;;;;;;;13.72;51.46;101144.66;4883367;29;20205;-76
2023/05/17 00:26:55;;;;;;;11.37;1.83;;;;;;;13.57;51.89;101147.84;4881695;29;20785;-74
2023/05/17 00:29:23;;;;;;;5.63;1.70;;;;;;;13.66;51.72;101154.09;4883916;29;20236;-75
2023/05/17 00:31:51;;;;;;;3.33;1.60;;;;;;;13.52;52.11;101149.28;4882363;29;20849;-76
2023/05/17 00:34:19;;;;;;;8.90;2.00;;;;;;;13.73;51.78;101155.16;4884392;29;20634;-74
2023/05/17 00:36:46;;;;;;;7.67;2.17;;;;;;;13.62;51.89;101149.22;4881514;29;20210;-74
2023/05/17 00:39:15;;;;;;;6.30;2.03;;;;;;;13.66;52.31;101145.25;4880375;29;20341;-74
2023/05/17 00:41:43;;;;;;;5.80;2.00;;;;;;;13.68;52.20;101146.78;4883194;29;20654;-75
2023/05/17 00:44:11;;;;;;;8.47;2.03;;;;;;;13.78;52.01;101150.22;4882435;29;20225;-73
2023/05/17 00:46:39;;;;;;;5.63;1.87;;;;;;;13.80;52.15;101158.91;4883440;29;20294;-75
2023/05/17 00:49:07;;;;;;;5.70;1.53;;;;;;;13.70;52.33;101150.16;4884666;29;20301;-73
2023/05/17 00:51:37;;;;;;;6.67;2.17;;;;;;;13.81;52.25;101155.22;4884118;29;20909;-73
2023/05/17 00:54:05;;;;;;;7.73;2.23;;;;;;;13.81;52.28;101157.91;4883806;29;20210;-74
2023/05/17 00:56:34;;;;;;;6.63;2.30;;;;;;;13.66;52.77;101155.91;4885832;29;20214;-74
2023/05/17 00:59:05;;;;;;;7.73;2.60;;;;;;;13.53;52.94;101153.63;4883382;29;20800;-74
2023/05/17 01:01:33;;;;;;;5.20;2.03;;;;;;;13.70;52.93;101154.63;4884749;29;20697;-74
2023/05/17 01:04:01;;;;;;;6.53;2.13;;;;;;;13.75;52.92;101157.66;4884317;29;20245;-74
2023/05/17 01:06:29;;;;;;;6.10;2.13;;;;;;;13.66;52.95;101159.41;4883418;29;20232;-74
2023/05/17 01:08:57;;;;;;;8.23;1.80;;;;;;;13.71;52.91;101156.31;4887897;29;20253;-75
2023/05/17 01:11:33;;;;;;;6.47;2.20;;;;;;;13.80;52.76;101160.75;4885067;29;20219;-75
2023/05/17 01:14:15;;;;;;;4.37;1.90;;;;;;;13.82;52.66;101159.56;4883082;29;20209;-75
2023/05/17 01:16:50;;;;;;;6.20;2.27;;;;;;;13.80;52.78;101158.91;4884619;29;20231;-78
2023/05/17 01:19:36;;;;;;;6.43;2.10;;;;;;;13.70;53.02;101152.81;4884443;29;20312;-75
2023/05/17 01:22:15;;;;;;;8.17;2.33;;;;;;;13.67;53.32;101161.09;4884588;29;20625;-75
2023/05/17 01:24:52;;;;;;;4.57;2.10;;;;;;;13.77;53.09;101164.53;4884828;29;20816;-75
2023/05/17 01:27:25;;;;;;;7.43;2.60;;;;;;;13.78;53.21;101168.03;4883765;29;20298;-74
2023/05/17 01:29:56;;;;;;;7.13;2.40;;;;;;;13.80;53.39;101169.56;4882987;29;20206;-77
2023/05/17 01:32:25;;;;;;;7.70;2.60;;;;;;;13.84;53.47;101176.25;4885178;29;20299;-76
2023/05/17 01:34:52;;;;;;;5.93;2.20;;;;;;;13.77;53.42;101177.03;4881768;29;20210;-75
2023/05/17 01:37:20;;;;;;;6.33;2.20;;;;;;;13.88;53.49;101182.97;4886557;29;20666;-75
2023/05/17 01:39:48;;;;;;;8.67;2.97;;;;;;;13.83;53.32;101185.25;4887042;29;20754;-74
2023/05/17 01:42:23;;;;;;;7.17;2.63;;;;;;;13.82;53.33;101180.91;4885290;29;21047;-75
2023/05/17 01:45:00;;;;;;;5.43;2.40;;;;;;;13.52;54.17;101176.78;4884835;29;20763;-76
2023/05/17 01:47:33;;;;;;;5.97;2.57;;;;;;;13.79;53.88;101180.38;4883932;29;20623;-75
2023/05/17 01:50:03;;;;;;;10.47;2.73;;;;;;;13.78;53.74;101184.88;4883448;29;20214;-74
2023/05/17 01:52:40;;;;;;;6.30;2.47;;;;;;;13.78;53.63;101187.53;4884780;29;20289;-75
2023/05/17 01:55:16;;;;;;;8.90;2.37;;;;;;;13.66;53.80;101186.06;4883203;29;20205;-74
2023/05/17 01:57:48;;;;;;;6.30;2.50;;;;;;;13.61;53.85;101183.03;4883304;29;20715;-75
2023/05/17 02:00:17;;;;;;;5.80;2.27;;;;;;;13.69;53.62;101185.78;4881830;29;20680;-77
2023/05/17 02:02:45;;;;;;;6.87;2.77;;;;;;;13.71;53.74;101190.97;4883653;29;20690;-75
2023/05/17 02:05:16;;;;;;;6.90;2.50;;;;;;;13.71;53.75;101186.47;4880491;29;20235;-75
2023/05/17 02:07:44;;;;;;;6.83;2.63;;;;;;;13.71;53.75;101188.31;4884834;29;20277;-75
2023/05/17 02:10:12;;;;;;;6.87;2.50;;;;;;;13.60;53.89;101191.16;4881978;29;20586;-75
2023/05/17 02:12:40;;;;;;;9.13;2.67;;;;;;;13.48;54.21;101201.19;4883980;29;20301;-75
2023/05/17 02:15:10;;;;;;;5.87;2.63;;;;;;;13.63;54.14;101207.72;4885027;29;20216;-76
2023/05/17 02:17:39;;;;;;;6.87;2.77;;;;;;;13.44;54.68;101197.16;4883643;29;20214;-78
2023/05/17 02:20:10;;;;;;;8.43;2.97;;;;;;;13.54;54.29;101203.28;4884222;29;20578;-75
2023/05/17 02:22:38;;;;;;;6.37;2.93;;;;;;;13.19;55.39;101204.84;4885530;29;20213;-74
2023/05/17 02:25:07;;;;;;;6.40;2.43;;;;;;;13.46;54.81;101206.66;4882799;29;20577;-77
2023/05/17 02:27:35;;;;;;;7.60;2.50;;;;;;;13.43;54.52;101203.47;4881837;29;20266;-75
2023/05/17 02:30:03;;;;;;;7.23;2.70;;;;;;;13.59;54.39;101214.31;4881139;29;20253;-74
2023/05/17 02:32:33;;;;;;;7.57;2.67;;;;;;;13.53;54.23;101207.78;4886465;29;20293;-75
2023/05/17 02:35:01;;;;;;;9.43;3.20;;;;;;;13.44;54.58;101206.00;4880611;29;20215;-76
2023/05/17 02:37:29;;;;;;;6.77;3.03;;;;;;;13.50;54.15;101220.53;4882007;29;20230;-76
2023/05/17 02:39:56;;;;;;;9.13;2.67;;;;;;;13.39;54.65;101212.75;4882342;29;20237;-76
2023/05/17 02:42:24;;;;;;;6.80;2.73;;;;;;;13.36;54.71;101211.22;4887453;29;20935;-75
2023/05/17 02:44:55;;;;;;;8.70;2.87;;;;;;;13.23;55.35;101210.72;4886873;29;20288;-75
2023/05/17 02:47:22;;;;;;;7.77;2.50;;;;;;;13.33;54.91;101216.84;4883192;29;20246;-75
2023/05/17 02:49:52;;;;;;;8.43;2.70;;;;;;;13.29;54.67;101218.09;4886528;29;20210;-74
2023/05/17 02:52:19;;;;;;;7.43;2.43;;;;;;;13.19;55.29;101214.69;4885914;29;20269;-75
2023/05/17 02:54:47;;;;;;;9.73;2.70;;;;;;;13.08;55.49;101228.97;4887344;29;20747;-75
2023/05/17 02:57:15;;;;;;;7.93;2.63;;;;;;;13.27;54.98;101221.94;4888327;29;20297;-75
2023/05/17 02:59:43;;;;;;;5.63;2.57;;;;;;;13.31;55.07;101224.13;4885492;29;20269;-74
2023/05/17 03:02:10;;;;;;;8.23;2.80;;;;;;;13.19;55.07;101236.78;4886365;29;20218;-76
2023/05/17 03:04:38;;;;;;;7.33;3.00;;;;;;;13.10;55.41;101237.66;4887413;29;20205;-77
2023/05/17 03:07:08;;;;;;;7.57;3.10;;;;;;;13.12;55.30;101241.00;4883303;29;20289;-75
2023/05/17 03:09:36;;;;;;;7.60;2.90;;;;;;;13.06;55.51;101241.59;4885078;29;20217;-75
2023/05/17 03:12:04;;;;;;;7.13;2.97;;;;;;;13.09;55.60;101235.16;4885191;29;20210;-74
2023/05/17 03:14:32;;;;;;;7.03;3.47;;;;;;;13.00;55.38;101236.84;4887274;29;20300;-74
2023/05/17 03:16:59;;;;;;;5.40;2.60;;;;;;;13.11;55.33;101236.66;4887274;29;20209;-76
2023/05/17 03:19:27;;;;;;;8.73;3.03;;;;;;;13.05;55.26;101241.72;4886200;29;21016;-76
2023/05/17 03:21:55;;;;;;;6.87;2.73;;;;;;;13.01;55.50;101246.53;4884276;29;20209;-77
2023/05/17 03:24:24;;;;;;;8.07;3.13;;;;;;;12.90;55.54;101245.84;4883124;29;20549;-75
2023/05/17 03:26:52;;;;;;;8.73;2.97;;;;;;;12.98;55.47;101249.47;4887253;29;20328;-75
2023/05/17 03:29:20;;;;;;;6.43;2.77;;;;;;;12.90;55.79;101256.50;4882564;29;20285;-75
2023/05/17 03:31:47;;;;;;;8.40;2.63;;;;;;;13.01;55.50;101256.34;4889979;29;20633;-75
2023/05/17 03:34:15;;;;;;;9.00;3.10;;;;;;;12.87;55.93;101257.63;4890688;29;20575;-75
2023/05/17 03:36:43;;;;;;;7.00;2.90;;;;;;;13.00;55.49;101262.63;4887157;29;20202;-75
2023/05/17 03:39:11;;;;;;;7.43;3.10;;;;;;;12.95;55.77;101268.38;4885326;29;20343;-75
2023/05/17 03:41:40;;;;;;;7.07;3.70;;;;;;;12.92;55.96;101266.03;4886899;29;20302;-76
2023/05/17 03:44:08;;;;;;;9.83;2.87;;;;;;;12.91;55.71;101263.50;4885508;29;20214;-75
2023/05/17 03:46:36;;;;;;;8.03;3.20;;;;;;;12.91;55.78;101264.34;4883513;29;20823;-76
2023/05/17 03:49:04;;;;;;;8.63;3.07;;;;;;;12.80;56.00;101272.47;4882699;29;20217;-75
2023/05/17 03:51:32;;;;;;;7.33;3.20;;;;;;;12.89;55.82;101271.63;4885242;29;20859;-76
2023/05/17 03:54:01;;;;;;;8.33;2.90;;;;;;;12.88;55.93;101266.44;4886588;29;20309;-75
2023/05/17 03:56:28;;;;;;;6.37;2.63;;;;;;;12.92;55.70;101265.19;4885486;29;20219;-76
2023/05/17 03:58:58;;;;;;;6.33;2.77;;;;;;;12.85;55.68;101264.91;4885740;29;20686;-76
2023/05/17 04:01:26;;;;;;;6.70;3.00;;;;;;;12.87;55.74;101265.59;4885591;29;20220;-74
2023/05/17 04:03:53;;;;;;;7.80;3.17;;;;;;;12.73;56.00;101274.88;4884838;29;20217;-75
2023/05/17 04:06:21;;;;;;;9.83;3.27;;;;;;;12.77;56.07;101268.28;4886799;29;20561;-74
2023/05/17 04:08:50;;;;;;;8.93;3.60;;;;;;;12.73;56.27;101271.38;4886605;29;20270;-75
2023/05/17 04:11:22;;;;;;;6.97;2.90;;;;;;;12.76;55.93;101274.59;4888674;29;20216;-74
2023/05/17 04:13:50;;;;;;;7.97;2.90;;;;;;;12.75;55.83;101274.75;4886356;29;20246;-75
2023/05/17 04:16:19;;;;;;;13.77;3.00;;;;;;;12.75;55.93;101280.88;4884655;29;20747;-74
2023/05/17 04:18:51;;;;;;;8.53;3.03;;;;;;;12.81;55.88;101283.00;4884076;29;20205;-74
2023/05/17 04:21:19;;;;;;;8.90;2.97;;;;;;;12.79;55.74;101286.78;4885422;29;20217;-74
2023/05/17 04:23:47;;;;;;;9.80;3.33;;;;;;;12.69;55.87;101283.28;4884632;29;20217;-74
2023/05/17 04:26:14;;;;;;;4.97;2.30;;;;;;;12.64;56.28;101282.88;4884471;29;20558;-74
2023/05/17 04:28:42;;;;;;;10.70;2.97;;;;;;;12.77;55.95;101289.56;4879487;29;20220;-73
2023/05/17 04:31:10;;;;;;;8.40;2.87;;;;;;;12.81;55.83;101295.47;4884654;29;20218;-76
2023/05/17 04:33:43;;;;;;;9.60;3.10;;;;;;;12.84;55.47;101295.16;4881791;29;20822;-74
2023/05/17 04:36:10;;;;;;;8.33;3.40;;;;;;;12.80;55.79;101293.78;4886147;29;20636;-74
2023/05/17 04:38:38;;;;;;;6.80;2.60;;;;;;;12.84;55.78;101295.16;4885398;29;20329;-75
2023/05/17 04:41:08;;;;;;;6.00;2.33;;;;;;;12.81;55.81;101300.78;4885251;29;20230;-75
2023/05/17 04:43:36;;;;;;;6.33;2.80;;;;;;;12.84;55.66;101300.47;4882259;29;20291;-77
2023/05/17 04:46:04;;;;;;;9.83;2.77;;;;;;;12.79;55.79;101297.41;4879981;29;20640;-76
2023/05/17 04:48:32;;;;;;;7.67;2.87;;;;;;;12.87;55.45;101305.53;4882543;29;20297;-74
2023/05/17 04:51:03;;;;;;;8.80;2.67;;;;;;;12.87;55.58;101305.53;4883320;29;20218;-75
2023/05/17 04:53:31;;;;;;;8.73;2.57;;;;;;;12.92;55.49;101303.28;4882728;29;20303;-74
2023/05/17 04:55:59;;;;;;;6.17;2.70;;;;;;;12.83;55.78;101309.47;4884231;29;20221;-74
2023/05/17 04:58:27;;;;;;;7.17;2.67;;;;;;;12.89;55.80;101319.53;4882810;29;20618;-75
2023/05/17 05:00:55;;;;;;;9.03;2.53;;;;;;;12.85;55.91;101319.97;4881517;29;20274;-73
2023/05/17 05:03:23;;;;;;;5.73;2.40;;;;;;;12.95;55.75;101323.44;4883397;29;20277;-74
2023/05/17 05:05:50;;;;;;;5.87;2.23;;;;;;;12.99;55.54;101323.03;4881452;29;20244;-75
2023/05/17 05:08:20;;;;;;;7.17;2.60;;;;;;;12.94;55.78;101327.94;4883311;29;20218;-74
2023/05/17 05:10:48;;;;;;;7.93;2.40;;;;;;;12.98;55.74;101329.34;4885723;29;20245;-74
2023/05/17 05:13:15;;;;;;;10.27;3.77;;;;;;;12.93;56.45;101330.75;4884916;29;20292;-76
2023/05/17 05:15:43;;;;;;;6.83;2.60;;;;;;;12.80;56.45;101339.88;4884677;29;20234;-75
2023/05/17 05:18:11;;;;;;;6.67;2.73;;;;;;;13.06;56.07;101342.78;4884718;29;20229;-74
2023/05/17 05:20:39;;;;;;;9.20;3.47;;;;;;;13.09;55.83;101345.16;4884799;29;20284;-75
2023/05/17 05:23:06;;;;;;;6.17;2.43;;;;;;;12.94;56.34;101349.22;4881408;29;20562;-74
2023/05/17 05:25:37;;;;;;;5.70;2.60;;;;;;;13.17;55.50;101350.66;4881994;29;20750;-75
2023/05/17 05:28:05;;;;;;;5.50;2.47;;;;;;;13.18;55.90;101362.97;4882820;29;20282;-76
2023/05/17 05:30:33;;;;;;;9.90;3.07;;;;;;;13.29;55.50;101363.78;4883972;29;20926;-75
2023/05/17 05:33:01;;;;;;;8.33;3.17;;;;;;;13.31;55.57;101367.13;4886678;29;20301;-75
2023/05/17 05:35:29;;;;;;;6.63;2.67;;;;;;;13.32;55.77;101360.81;4885921;29;20233;-75
2023/05/17 05:37:58;;;;;;;11.87;2.93;;;;;;;13.40;55.51;101374.25;4886040;29;20218;-75
2023/05/17 05:40:26;;;;;;;9.37;3.13;;;;;;;13.39;55.33;101373.44;4884023;29;20269;-75
2023/05/17 05:42:55;;;;;;;9.37;2.90;;;;;;;13.31;55.75;101372.47;4881873;29;20253;-75
2023/05/17 05:45:23;;;;;;;9.20;2.90;;;;;;;13.44;55.86;101370.34;4881481;29;20214;-75
2023/05/17 05:47:51;;;;;;;10.30;3.60;;;;;;;13.63;55.42;101370.28;4882115;29;20640;-76
2023/05/17 05:50:19;;;;;;;9.37;2.80;;;;;;;13.62;55.30;101373.94;4881623;29;20222;-76
2023/05/17 05:52:46;;;;;;;12.57;3.07;;;;;;;13.57;55.54;101368.19;4881837;29;20309;-74
2023/05/17 05:55:14;;;;;;;5.60;2.10;;;;;;;13.64;55.13;101363.94;4883253;29;20305;-76
2023/05/17 05:57:42;;;;;;;6.60;2.60;;;;;;;13.80;54.47;101374.84;4883131;29;20225;-75
2023/05/17 06:00:12;;;;;;;6.57;2.63;;;;;;;13.81;54.33;101378.31;4880844;29;20289;-76
2023/05/17 06:02:40;;;;;;;8.13;3.10;;;;;;;13.62;54.79;101379.25;4881933;29;20213;-75
2023/05/17 06:05:09;;;;;;;12.87;3.03;;;;;;;13.80;54.66;101380.16;4882204;29;20922;-75
2023/05/17 06:07:36;;;;;;;6.03;2.83;;;;;;;13.81;54.46;101381.81;4880951;29;20216;-76
2023/05/17 06:10:05;;;;;;;11.23;3.00;;;;;;;13.86;54.26;101384.06;4879392;29;20214;-74
2023/05/17 06:12:32;;;;;;;10.93;3.07;;;;;;;13.94;54.31;101387.69;4880816;29;20681;-74
2023/05/17 06:15:00;;;;;;;7.90;3.10;;;;;;;14.03;54.24;101388.63;4878658;29;20301;-66
2023/05/17 06:17:29;;;;;;;7.73;2.97;;;;;;;14.10;54.10;101391.53;4883278;29;20253;-67
2023/05/17 06:19:57;;;;;;;8.07;2.87;;;;;;;14.11;53.85;101399.38;4883499;29;20215;-66
2023/05/17 06:22:25;;;;;;;12.20;2.93;;;;;;;14.13;53.48;101400.06;4885010;29;20584;-68
2023/05/17 06:24:53;;;;;;;7.60;3.23;;;;;;;14.17;54.03;101393.44;4881896;29;20261;-67
2023/05/17 06:27:20;;;;;;;12.77;3.67;;;;;;;14.18;54.56;101404.94;4880368;29;20258;-68
2023/05/17 06:29:48;;;;;;;12.70;3.33;;;;;;;14.25;54.60;101403.34;4884140;29;20213;-67
2023/05/17 06:32:16;;;;;;;9.30;3.33;;;;;;;14.31;54.60;101400.13;4883476;29;20680;-67
2023/05/17 06:34:45;;;;;;;7.87;3.43;;;;;;;14.23;54.64;101414.22;4882085;29;20302;-68
2023/05/17 06:37:13;;;;;;;7.67;3.20;;;;;;;14.24;54.57;101415.03;4884235;29;20340;-68
2023/05/17 06:39:41;;;;;;;6.83;3.17;;;;;;;14.37;54.57;101401.34;4882756;29;20216;-68
2023/05/17 06:42:11;;;;;;;7.80;3.33;;;;;;;14.46;54.47;101403.13;4881830;29;20603;-68
2023/05/17 06:44:39;;;;;;;8.90;3.40;;;;;;;14.43;54.38;101408.75;4882791;29;20209;-70
2023/05/17 06:47:07;;;;;;;11.83;4.03;;;;;;;14.55;56.14;101412.91;4881978;29;20278;-68
2023/05/17 06:49:35;;;;;;;10.93;3.13;;;;;;;14.63;53.76;101410.31;4881748;29;20639;-69
2023/05/17 06:52:04;;;;;;;8.37;3.10;;;;;;;14.75;53.03;101413.63;4886338;29;20206;-66
2023/05/17 06:54:32;;;;;;;10.53;3.60;;;;;;;14.77;53.45;101422.31;4884495;29;20216;-68
2023/05/17 06:57:00;;;;;;;11.63;3.13;;;;;;;14.74;53.22;101417.28;4883548;29;20225;-68
2023/05/17 06:59:28;;;;;;;9.43;3.40;;;;;;;14.84;52.40;101418.88;4882517;29;20711;-69
2023/05/17 07:01:56;;;;;;;11.97;3.30;;;;;;;14.82;52.68;101418.19;4883703;29;20339;-68
2023/05/17 07:04:24;;;;;;;10.13;3.20;;;;;;;14.82;53.00;101422.69;4882064;29;20218;-68
2023/05/17 07:06:52;;;;;;;9.07;3.30;;;;;;;14.98;53.23;101420.16;4883411;29;20228;-69
2023/05/17 07:09:21;;;;;;;9.87;3.20;;;;;;;15.01;52.52;101419.88;4882052;29;20324;-69
2023/05/17 07:11:49;;;;;;;10.53;3.80;;;;;;;15.03;51.68;101426.75;4882608;29;20679;-69
2023/05/17 07:14:17;;;;;;;9.00;3.30;;;;;;;14.98;52.16;101425.50;4882980;29;20224;-69
2023/05/17 07:16:44;;;;;;;8.73;3.07;;;;;;;14.97;51.78;101435.34;4882090;29;20227;-66
2023/05/17 07:19:12;;;;;;;10.73;4.37;;;;;;;14.99;51.15;101435.19;4883124;29;20209;-68
2023/05/17 07:21:40;;;;;;;11.37;3.90;;;;;;;15.00;51.44;101440.38;4884899;29;20239;-67
2023/05/17 07:24:08;;;;;;;9.07;3.03;;;;;;;14.93;52.15;101443.81;4885022;29;20313;-68
2023/05/17 07:26:37;;;;;;;7.77;3.33;;;;;;;15.04;52.15;101440.91;4883919;29;20312;-71
2023/05/17 07:29:05;;;;;;;7.30;3.07;;;;;;;15.10;51.95;101434.97;4881913;29;20217;-68
2023/05/17 07:31:33;;;;;;;8.87;3.53;;;;;;;15.24;51.73;101439.75;4884908;29;20838;-67
2023/05/17 07:34:01;;;;;;;9.67;3.27;;;;;;;15.28;51.75;101438.47;4884688;29;20703;-69
2023/05/17 07:36:29;;;;;;;10.53;3.43;;;;;;;15.50;50.94;101434.44;4880811;29;20664;-67
2023/05/17 07:38:58;;;;;;;12.93;3.67;;;;;;;15.56;50.90;101433.00;4884921;29;20930;-67
2023/05/17 07:41:26;;;;;;;9.37;3.53;;;;;;;15.68;50.21;101439.75;4882864;29;20268;-68
2023/05/17 07:43:55;;;;;;;10.03;3.23;;;;;;;15.69;50.02;101436.09;4885203;29;20936;-68
2023/05/17 07:46:22;;;;;;;8.13;3.40;;;;;;;15.80;49.46;101430.47;4884191;29;20252;-69
2023/05/17 07:48:50;;;;;;;10.97;2.93;;;;;;;15.95;49.11;101431.56;4882432;29;20285;-68
2023/05/17 07:51:18;;;;;;;10.00;3.60;;;;;;;16.02;49.33;101432.59;4884485;29;20213;-68
2023/05/17 07:53:46;;;;;;;8.13;3.90;;;;;;;16.14;48.75;101434.00;4882321;29;20281;-67
2023/05/17 07:56:13;;;;;;;9.87;3.07;;;;;;;16.29;48.05;101426.19;4881422;29;20752;-68
2023/05/17 07:58:41;;;;;;;11.60;3.20;;;;;;;16.37;47.59;101433.38;4883629;29;20210;-68
2023/05/17 08:01:10;;;;;;;8.03;3.00;;;;;;;16.41;47.73;101432.06;4884635;29;20242;-67
2023/05/17 08:03:38;;;;;;;7.70;2.93;;;;;;;16.45;47.27;101428.06;4882631;29;20684;-68
2023/05/17 08:06:06;;;;;;;7.17;3.03;;;;;;;16.39;47.39;101428.72;4882458;29;20724;-68
2023/05/17 08:08:34;;;;;;;6.70;2.93;;;;;;;16.49;46.99;101430.25;4881602;29;20209;-68
2023/05/17 08:11:02;;;;;;;6.80;2.73;;;;;;;16.50;46.96;101437.28;4884817;29;20550;-68
2023/05/17 08:13:29;;;;;;;7.70;2.93;;;;;;;16.48;46.82;101439.28;4884168;29;20281;-68
2023/05/17 08:16:01;;;;;;;7.57;3.30;;;;;;;16.39;46.97;101439.44;4880913;29;20254;-68
2023/05/17 08:18:42;;;;;;;8.33;3.10;;;;;;;16.23;46.87;101436.69;4882181;29;20774;-68
2023/05/17 08:21:11;;;;;;;9.93;3.07;;;;;;;16.13;46.55;101432.31;4881580;29;20336;-71
2023/05/17 08:23:41;;;;;;;8.87;3.00;;;;;;;16.06;47.02;101436.63;4883343;29;20601;-68
2023/05/17 08:26:08;;;;;;;7.50;3.77;;;;;;;15.98;47.18;101433.91;4883615;29;20236;-68
2023/05/17 08:28:36;;;;;;;9.17;3.17;;;;;;;16.00;47.37;101434.59;4882842;29;20205;-69
2023/05/17 08:31:06;;;;;;;9.07;3.47;;;;;;;16.18;47.33;101429.97;4884305;29;20743;-67
2023/05/17 08:33:33;;;;;;;6.50;2.63;;;;;;;16.43;46.79;101422.06;4884523;29;20300;-67
2023/05/17 08:36:06;;;;;;;4.93;2.93;;;;;;;16.64;46.30;101430.47;4880542;29;20214;-69
2023/05/17 08:38:35;;;;;;;9.30;3.13;;;;;;;16.89;46.25;101429.50;4881428;29;20216;-68
2023/05/17 08:41:02;;;;;;;6.80;2.33;;;;;;;17.07;44.96;101425.84;4881463;29;20218;-68
2023/05/17 08:43:31;;;;;;;9.17;2.70;;;;;;;17.17;44.60;101426.53;4881865;29;20298;-68
2023/05/17 08:45:58;;;;;;;7.53;2.40;;;;;;;17.16;43.65;101423.00;4882682;29;20655;-68
2023/05/17 08:48:29;;;;;;;6.43;2.50;;;;;;;17.16;43.76;101422.16;4883263;29;20236;-67
2023/05/17 08:50:58;;;;;;;7.63;2.93;;;;;;;17.33;43.51;101425.69;4881213;29;20264;-69
2023/05/17 08:53:28;;;;;;;7.60;2.80;;;;;;;17.48;43.87;101427.50;4882439;29;20218;-68
2023/05/17 08:55:59;;;;;;;6.27;2.87;;;;;;;17.80;44.01;101426.63;4879882;29;20221;-68
2023/05/17 08:58:31;;;;;;;7.23;2.47;;;;;;;17.93;42.85;101415.38;4880096;29;20934;-67
2023/05/17 09:01:18;;;;;;;5.80;2.43;;;;;;;17.86;42.61;101425.94;4882115;29;20253;-67
2023/05/17 09:03:48;;;;;;;7.57;2.10;;;;;;;17.74;43.31;101421.13;4881289;29;20293;-67
2023/05/17 09:06:18;;;;;;;7.47;2.20;;;;;;;17.59;43.85;101419.09;4882083;29;20815;-69
2023/05/17 09:08:49;;;;;;;6.80;2.63;;;;;;;17.41;43.38;101421.16;4880866;29;20233;-67
2023/05/17 09:11:25;;;;;;;6.83;2.97;;;;;;;17.14;43.31;101425.03;4882302;29;20217;-67
2023/05/17 09:13:52;;;;;;;5.27;2.23;;;;;;;17.06;43.73;101430.38;4879786;29;20332;-68
2023/05/17 09:16:21;;;;;;;7.50;2.67;;;;;;;16.93;43.38;101422.00;4880282;29;20205;-67
2023/05/17 09:18:55;;;;;;;9.57;2.90;;;;;;;16.71;44.32;101417.28;4882591;29;20209;-68
2023/05/17 09:21:23;;;;;;;8.40;2.43;;;;;;;16.61;44.56;101422.81;4880076;29;20217;-69
2023/05/17 09:23:53;;;;;;;7.97;2.73;;;;;;;16.53;44.91;101420.88;4879130;29;20217;-68
2023/05/17 09:26:40;;;;;;;5.47;2.27;;;;;;;16.46;45.49;101419.03;4880704;29;20307;-69
2023/05/17 09:29:09;;;;;;;7.03;2.63;;;;;;;16.63;45.17;101420.78;4880555;29;20688;-68
2023/05/17 09:31:37;;;;;;;8.00;2.60;;;;;;;16.92;45.29;101418.47;4882031;29;20237;-68
2023/05/17 09:34:06;;;;;;;8.70;2.60;;;;;;;17.28;44.68;101421.66;4881289;29;20783;-69
2023/05/17 09:36:36;;;;;;;9.13;2.60;;;;;;;17.47;43.43;101425.00;4881592;29;20217;-72
2023/05/17 09:39:10;;;;;;;4.57;2.00;;;;;;;17.88;42.81;101417.72;4881465;29;20276;-68
2023/05/17 09:41:43;;;;;;;5.80;2.33;;;;;;;18.17;42.82;101423.31;4883195;29;20243;-68
2023/05/17 09:44:12;;;;;;;6.23;2.93;;;;;;;18.41;42.11;101415.13;4881792;29;20676;-68
2023/05/17 09:46:42;;;;;;;8.57;2.47;;;;;;;18.60;41.74;101418.41;4879513;29;20250;-67
2023/05/17 09:49:10;;;;;;;9.53;3.07;;;;;;;18.58;40.70;101413.22;4880850;29;20214;-68
2023/05/17 09:51:41;;;;;;;6.63;2.30;;;;;;;18.36;40.23;101422.91;4878567;29;20224;-68
2023/05/17 09:54:10;;;;;;;5.63;2.47;;;;;;;18.12;41.20;101424.84;4881903;29;20244;-68
2023/05/17 09:56:39;;;;;;;8.97;2.60;;;;;;;17.94;42.14;101419.72;4883091;29;20210;-68
2023/05/17 09:59:11;;;;;;;8.03;2.97;;;;;;;17.78;42.48;101422.44;4880906;29;20271;-68
2023/05/17 10:01:41;;;;;;;9.87;2.93;;;;;;;17.69;42.41;101424.31;4882049;29;20268;-69
2023/05/17 10:04:10;;;;;;;8.60;3.03;;;;;;;17.60;43.42;101420.78;4882000;29;20273;-69
2023/05/17 10:06:40;;;;;;;8.33;2.47;;;;;;;17.55;43.74;101423.13;4881538;29;20903;-69
2023/05/17 10:09:14;;;;;;;8.30;2.60;;;;;;;17.70;44.10;101419.78;4881807;29;20835;-69
2023/05/17 10:11:47;;;;;;;7.70;3.37;;;;;;;17.74;43.65;101426.47;4880028;29;20212;-68
2023/05/17 10:14:21;;;;;;;9.43;2.77;;;;;;;17.67;43.39;101420.97;4879174;29;20214;-67
2023/05/17 10:16:50;;;;;;;9.90;2.93;;;;;;;17.51;43.92;101419.09;4879763;29;20931;-68
2023/05/17 10:19:20;;;;;;;8.63;3.13;;;;;;;17.47;43.75;101425.00;4880228;29;20696;-69
2023/05/17 10:21:50;;;;;;;7.97;2.47;;;;;;;17.33;43.69;101417.66;4880154;29;20313;-68
2023/05/17 10:24:20;;;;;;;8.97;2.77;;;;;;;17.18;42.95;101406.75;4879652;29;20794;-68
2023/05/17 10:26:50;;;;;;;9.30;2.70;;;;;;;17.12;43.52;101415.47;4880049;29;20264;-68
2023/05/17 10:29:19;;;;;;;6.87;2.70;;;;;;;17.03;43.45;101414.63;4880902;29;20751;-67
2023/05/17 10:31:49;;;;;;;9.07;3.23;;;;;;;16.98;43.83;101408.09;4882121;29;20232;-67
2023/05/17 10:34:18;;;;;;;10.03;2.80;;;;;;;16.95;44.13;101417.31;4879197;29;20210;-67
2023/05/17 10:36:49;;;;;;;5.57;2.27;;;;;;;16.96;44.86;101408.28;4881774;29;20221;-68
2023/05/17 10:39:17;;;;;;;8.30;2.70;;;;;;;17.17;44.00;101413.13;4879753;29;20739;-67
2023/05/17 10:41:50;;;;;;;9.00;3.00;;;;;;;17.53;42.52;101413.59;4881177;29;20352;-68
2023/05/17 10:44:19;;;;;;;6.60;2.37;;;;;;;17.89;41.95;101406.81;4879737;29;20556;-68
2023/05/17 10:46:58;;;;;;;8.37;2.40;;;;;;;18.19;41.92;101394.47;4882634;29;20237;-67
2023/05/17 10:49:27;;;;;;;5.10;2.60;;;;;;;18.42;40.38;101391.81;4880327;29;20261;-67
2023/05/17 10:51:57;;;;;;;9.30;2.93;;;;;;;18.62;40.31;101390.38;4880525;29;20939;-68
2023/05/17 10:54:34;;;;;;;6.50;2.27;;;;;;;18.68;40.22;101388.81;4881816;29;20275;-68
2023/05/17 10:57:05;;;;;;;6.50;2.90;;;;;;;18.54;40.59;101392.25;4878176;29;20923;-67
2023/05/17 10:59:35;;;;;;;8.97;2.70;;;;;;;18.46;39.96;101394.97;4881531;29;20641;-68
2023/05/17 11:02:05;;;;;;;11.57;2.90;;;;;;;18.21;40.10;101403.16;4885081;29;20224;-68
2023/05/17 11:04:33;;;;;;;6.60;2.37;;;;;;;18.05;40.00;101403.22;4882968;29;20237;-68
2023/05/17 11:07:23;;;;;;;8.03;3.13;;;;;;;17.77;40.63;101400.13;4882925;29;20299;-67
2023/05/17 11:09:54;;;;;;;8.53;2.70;;;;;;;17.77;42.50;101399.28;4881600;29;20217;-68
2023/05/17 11:12:32;;;;;;;6.33;2.37;;;;;;;17.61;41.80;101394.78;4881702;29;20214;-67
2023/05/17 11:15:07;;;;;;;12.37;3.00;;;;;;;17.53;41.03;101392.13;4883419;29;20636;-68
2023/05/17 11:17:46;;;;;;;8.63;2.63;;;;;;;17.41;42.56;101399.72;4884502;29;20214;-67
2023/05/17 11:20:30;;;;;;;6.13;2.80;;;;;;;17.33;42.25;101399.69;4883813;29;20221;-67
2023/05/17 11:23:03;;;;;;;7.07;2.57;;;;;;;17.39;43.22;101396.34;4883804;29;20225;-67
2023/05/17 11:25:34;;;;;;;8.77;3.13;;;;;;;17.31;43.10;101399.06;4883348;29;20237;-67
2023/05/17 11:28:08;;;;;;;5.83;2.43;;;;;;;17.28;43.00;101402.91;4883974;29;20802;-68
2023/05/17 11:30:42;;;;;;;12.40;3.17;;;;;;;17.24;42.24;101395.34;4887320;29;20233;-67
2023/05/17 11:33:10;;;;;;;7.20;2.50;;;;;;;17.24;41.66;101406.06;4885933;29;20213;-69
2023/05/17 11:35:54;;;;;;;7.30;2.17;;;;;;;17.23;42.22;101399.91;4885335;29;20212;-67